createdAt,value
2023-11-23T00:01:12.972Z,98723.22
2023-11-23T00:03:42.073Z,98716.81
2023-11-23T00:06:10.335Z,98725.38
2023-11-23T00:08:42.195Z,98719.63
2023-11-23T00:11:11.141Z,98722.69
2023-11-23T00:13:39.615Z,98734.56
2023-11-23T00:16:09.327Z,98723.22
2023-11-23T00:18:37.538Z,98737.53
2023-11-23T00:21:06.292Z,98730.47
2023-11-23T00:23:34.456Z,98728.00
2023-11-23T00:26:04.712Z,98725.41
2023-11-23T00:28:32.812Z,98728.25
2023-11-23T00:31:01.024Z,98736.69
2023-11-23T00:33:29.733Z,98744.03
2023-11-23T00:35:58.325Z,98747.16
2023-11-23T00:38:26.481Z,98749.34
2023-11-23T00:40:54.956Z,98752.13
2023-11-23T00:43:25.483Z,98746.06
2023-11-23T00:45:53.601Z,98740.13
2023-11-23T00:48:21.821Z,98743.78
2023-11-23T00:50:50.146Z,98745.47
2023-11-23T00:53:18.435Z,98741.28
2023-11-23T00:55:46.564Z,98737.72
2023-11-23T00:58:14.790Z,98742.06
2023-11-23T01:00:44.933Z,98747.41
2023-11-23T01:03:13.260Z,98746.63
2023-11-23T01:05:41.563Z,98747.19
2023-11-23T01:08:09.813Z,98738.47
2023-11-23T01:10:37.949Z,98744.53
2023-11-23T01:13:07.141Z,98738.38
2023-11-23T01:15:35.293Z,98725.75
2023-11-23T01:18:05.135Z,98740.03
2023-11-23T01:20:33.326Z,98733.84
2023-11-23T01:23:01.448Z,98729.19
2023-11-23T01:25:29.817Z,98731.75
2023-11-23T01:27:58.202Z,98726.66
2023-11-23T01:30:26.369Z,98717.59
2023-11-23T01:32:55.062Z,98717.06
2023-11-23T01:35:25.645Z,98724.94
2023-11-23T01:37:53.851Z,98721.22
2023-11-23T01:40:21.956Z,98721.50
2023-11-23T01:42:50.448Z,98723.03
2023-11-23T01:45:18.849Z,98730.09
2023-11-23T01:47:49.402Z,98723.63
2023-11-23T01:50:20.221Z,98710.94
2023-11-23T01:52:50.248Z,98695.84
2023-11-23T01:55:19.150Z,98693.13
2023-11-23T01:57:53.383Z,98698.03
2023-11-23T02:00:22.505Z,98694.25
2023-11-23T02:02:52.610Z,98681.03
2023-11-23T02:05:23.782Z,98689.31
2023-11-23T02:07:53.480Z,98692.56
2023-11-23T02:10:22.036Z,98702.78
2023-11-23T02:12:53.816Z,98697.59
2023-11-23T02:15:23.212Z,98687.06
2023-11-23T02:18:02.583Z,98693.22
2023-11-23T02:20:30.872Z,98720.06
2023-11-23T02:23:01.746Z,98726.53
2023-11-23T02:25:31.569Z,98725.56
2023-11-23T02:27:59.839Z,98730.16
2023-11-23T02:30:27.996Z,98736.56
2023-11-23T02:32:57.090Z,98744.19
2023-11-23T02:35:25.305Z,98755.44
2023-11-23T02:37:53.412Z,98746.28
2023-11-23T02:40:21.547Z,98751.09
2023-11-23T02:42:51.223Z,98758.31
2023-11-23T02:45:19.439Z,98752.25
2023-11-23T02:47:47.688Z,98759.44
2023-11-23T02:50:15.987Z,98769.94
2023-11-23T02:52:44.559Z,98759.06
2023-11-23T02:55:13.084Z,98746.88
2023-11-23T02:57:43.173Z,98733.97
2023-11-23T03:00:14.166Z,98721.19
2023-11-23T03:02:42.457Z,98720.72
2023-11-23T03:05:12.308Z,98728.84
2023-11-23T03:07:40.979Z,98740.84
2023-11-23T03:10:10.998Z,98730.19
2023-11-23T03:12:39.120Z,98723.34
2023-11-23T03:15:08.086Z,98715.34
2023-11-23T03:17:37.794Z,98721.00
2023-11-23T03:20:07.408Z,98723.41
2023-11-23T03:22:35.557Z,98728.59
2023-11-23T03:25:03.762Z,98723.63
2023-11-23T03:27:32.426Z,98710.22
2023-11-23T03:30:00.831Z,98704.59
2023-11-23T03:32:31.612Z,98703.97
2023-11-23T03:35:01.646Z,98705.94
2023-11-23T03:37:30.369Z,98704.59
2023-11-23T03:40:00.433Z,98694.91
2023-11-23T03:42:28.590Z,98714.50
2023-11-23T03:44:57.171Z,98728.28
2023-11-23T03:47:25.369Z,98732.28
2023-11-23T03:49:53.580Z,98732.19
2023-11-23T03:52:23.175Z,98735.00
2023-11-23T03:54:51.677Z,98732.06
2023-11-23T03:57:20.025Z,98743.09
2023-11-23T03:59:48.205Z,98725.59
2023-11-23T04:02:16.499Z,98722.06
2023-11-23T04:04:44.709Z,98717.50
2023-11-23T04:07:12.798Z,98712.38
2023-11-23T04:09:42.294Z,98705.75
2023-11-23T04:12:10.592Z,98716.72
2023-11-23T04:14:38.744Z,98712.75
2023-11-23T04:17:07.185Z,98723.31
2023-11-23T04:19:35.464Z,98705.19
2023-11-23T04:22:04.813Z,98705.56
2023-11-23T04:24:32.987Z,98712.63
2023-11-23T04:27:02.519Z,98723.50
2023-11-23T04:29:30.691Z,98714.94
2023-11-23T04:31:58.835Z,98719.88
2023-11-23T04:34:27.690Z,98721.63
2023-11-23T04:36:56.654Z,98724.88
2023-11-23T04:39:24.897Z,98734.66
2023-11-23T04:41:53.156Z,98724.03
2023-11-23T04:44:22.876Z,98723.09
2023-11-23T04:46:52.684Z,98711.94
2023-11-23T04:49:21.003Z,98706.09
2023-11-23T04:51:49.123Z,98704.78
2023-11-23T04:54:17.933Z,98689.44
2023-11-23T04:56:51.316Z,98680.06
2023-11-23T04:59:19.635Z,98678.66
2023-11-23T05:01:49.126Z,98672.28
2023-11-23T05:04:17.643Z,98682.59
2023-11-23T05:06:46.021Z,98676.84
2023-11-23T05:09:14.201Z,98669.66
2023-11-23T05:11:42.438Z,98660.19
2023-11-23T05:14:11.161Z,98654.34
2023-11-23T05:16:39.505Z,98654.06
2023-11-23T05:19:09.047Z,98657.75
2023-11-23T05:21:37.330Z,98655.72
2023-11-23T05:24:06.611Z,98663.13
2023-11-23T05:26:35.228Z,98656.69
2023-11-23T05:29:03.364Z,98661.38
2023-11-23T05:31:31.603Z,98652.50
2023-11-23T05:33:59.903Z,98649.56
2023-11-23T05:36:29.387Z,98650.38
2023-11-23T05:38:58.197Z,98655.19
2023-11-23T05:41:26.396Z,98656.00
2023-11-23T05:43:54.606Z,98660.13
2023-11-23T05:46:22.834Z,98663.66
2023-11-23T05:48:51.853Z,98667.44
2023-11-23T05:51:21.672Z,98680.16
2023-11-23T05:53:52.949Z,98673.28
2023-11-23T05:56:21.877Z,98669.19
2023-11-23T05:58:50.611Z,98671.34
2023-11-23T06:01:18.777Z,98664.00
2023-11-23T06:03:47.095Z,98664.91
2023-11-23T06:06:22.756Z,98665.91
2023-11-23T06:08:52.800Z,98665.09
2023-11-23T06:11:21.201Z,98665.09
2023-11-23T06:13:50.138Z,98663.81
2023-11-23T06:16:18.265Z,98655.75
2023-11-23T06:18:46.811Z,98649.94
2023-11-23T06:21:15.507Z,98660.22
2023-11-23T06:23:43.684Z,98649.91
2023-11-23T06:26:13.122Z,98655.69
2023-11-23T06:28:41.587Z,98659.25
2023-11-23T06:31:09.762Z,98653.94
2023-11-23T06:33:37.931Z,98650.47
2023-11-23T06:36:06.942Z,98655.44
2023-11-23T06:38:35.175Z,98651.78
2023-11-23T06:41:04.015Z,98659.88
2023-11-23T06:43:33.501Z,98659.47
2023-11-23T06:46:01.732Z,98666.63
2023-11-23T06:48:30.000Z,98679.66
2023-11-23T06:50:58.449Z,98677.13
2023-11-23T06:53:26.650Z,98671.69
2023-11-23T06:55:55.714Z,98668.16
2023-11-23T06:58:23.829Z,98673.25
2023-11-23T07:00:53.289Z,98672.63
2023-11-23T07:03:22.624Z,98680.78
2023-11-23T07:05:51.630Z,98681.03
2023-11-23T07:08:19.850Z,98685.97
2023-11-23T07:10:47.987Z,98678.91
2023-11-23T07:13:16.815Z,98676.59
2023-11-23T07:15:45.036Z,98660.56
2023-11-23T07:18:15.589Z,98663.81
2023-11-23T07:20:44.691Z,98662.34
2023-11-23T07:23:12.877Z,98664.06
2023-11-23T07:25:44.651Z,98658.47
2023-11-23T07:28:13.325Z,98666.25
2023-11-23T07:30:42.244Z,98660.78
2023-11-23T07:33:13.817Z,98657.34
2023-11-23T07:35:43.646Z,98662.59
2023-11-23T07:38:16.221Z,98658.09
2023-11-23T07:40:44.939Z,98662.16
2023-11-23T07:43:13.146Z,98656.31
2023-11-23T07:45:41.346Z,98652.09
2023-11-23T07:48:11.141Z,98665.53
2023-11-23T07:50:40.913Z,98667.78
2023-11-23T07:53:09.574Z,98674.56
2023-11-23T07:55:38.833Z,98685.38
2023-11-23T07:58:08.370Z,98674.09
2023-11-23T08:00:39.365Z,98678.19
2023-11-23T08:03:07.675Z,98676.84
2023-11-23T08:05:37.151Z,98685.81
2023-11-23T08:08:07.395Z,98680.47
2023-11-23T08:10:35.648Z,98678.66
2023-11-23T08:13:03.779Z,98675.72
2023-11-23T08:15:32.433Z,98673.81
2023-11-23T08:18:05.560Z,98682.06
2023-11-23T08:20:38.222Z,98684.06
2023-11-23T08:23:08.852Z,98683.50
2023-11-23T08:25:36.994Z,98681.53
2023-11-23T08:28:05.586Z,98682.22
2023-11-23T08:30:33.812Z,98683.53
2023-11-23T08:33:02.077Z,98689.09
2023-11-23T08:35:30.558Z,98686.59
2023-11-23T08:37:58.836Z,98678.88
2023-11-23T08:40:28.418Z,98683.41
2023-11-23T08:42:56.709Z,98681.88
2023-11-23T08:45:26.004Z,98679.19
2023-11-23T08:47:54.658Z,98681.53
2023-11-23T08:50:23.275Z,98676.97
2023-11-23T08:52:51.449Z,98666.56
2023-11-23T08:55:19.780Z,98652.94
2023-11-23T08:57:52.054Z,98655.31
2023-11-23T09:00:24.898Z,98639.53
2023-11-23T09:02:54.633Z,98643.03
2023-11-23T09:05:24.229Z,98636.88
2023-11-23T09:07:52.539Z,98632.03
2023-11-23T09:10:24.370Z,98620.22
2023-11-23T09:12:53.921Z,98607.03
2023-11-23T09:15:24.150Z,98607.31
2023-11-23T09:17:52.824Z,98609.75
2023-11-23T09:20:20.987Z,98604.94
2023-11-23T09:22:49.793Z,98596.28
2023-11-23T09:25:19.520Z,98587.38
2023-11-23T09:27:47.805Z,98580.09
2023-11-23T09:30:17.603Z,98586.84
2023-11-23T09:32:45.804Z,98580.34
2023-11-23T09:35:14.062Z,98582.25
2023-11-23T09:37:42.441Z,98579.00
2023-11-23T09:40:18.657Z,98568.47
2023-11-23T09:42:49.533Z,98557.41
2023-11-23T09:45:24.072Z,98554.97
2023-11-23T09:47:55.667Z,98545.81
2023-11-23T09:50:24.252Z,98546.84
2023-11-23T09:52:55.611Z,98558.47
2023-11-23T09:55:26.834Z,98552.78
2023-11-23T09:57:55.005Z,98553.53
2023-11-23T10:00:26.108Z,98552.50
2023-11-23T10:02:57.088Z,98542.47
2023-11-23T10:05:27.029Z,98527.91
2023-11-23T10:07:55.739Z,98516.84
2023-11-23T10:10:23.944Z,98519.16
2023-11-23T10:12:52.125Z,98515.94
2023-11-23T10:15:20.470Z,98500.97
2023-11-23T10:17:50.189Z,98489.97
2023-11-23T10:20:18.389Z,98497.00
2023-11-23T10:22:51.338Z,98488.56
2023-11-23T10:25:32.549Z,98486.34
2023-11-23T10:28:01.666Z,98488.88
2023-11-23T10:30:30.864Z,98478.34
2023-11-23T10:33:02.953Z,98475.97
2023-11-23T10:35:40.086Z,98474.56
2023-11-23T10:38:11.487Z,98460.34
2023-11-23T10:40:39.611Z,98443.91
2023-11-23T10:43:12.954Z,98439.69
2023-11-23T10:45:45.246Z,98432.78
2023-11-23T10:48:18.162Z,98425.44
2023-11-23T10:50:47.178Z,98433.34
2023-11-23T10:53:17.956Z,98423.75
2023-11-23T10:55:50.588Z,98437.69
2023-11-23T10:58:21.242Z,98438.13
2023-11-23T11:00:51.880Z,98423.53
2023-11-23T11:03:22.078Z,98426.84
2023-11-23T11:05:54.373Z,98416.63
2023-11-23T11:08:28.004Z,98409.22
2023-11-23T11:10:58.672Z,98401.25
2023-11-23T11:13:27.702Z,98396.47
2023-11-23T11:15:59.398Z,98392.56
2023-11-23T11:18:31.417Z,98391.59
2023-11-23T11:21:11.019Z,98383.81
2023-11-23T11:23:41.595Z,98389.16
2023-11-23T11:26:14.464Z,98377.78
2023-11-23T11:28:43.377Z,98376.88
2023-11-23T11:31:15.900Z,98381.00
2023-11-23T11:33:45.940Z,98377.25
2023-11-23T11:36:14.564Z,98367.06
2023-11-23T11:38:54.191Z,98365.38
2023-11-23T11:41:26.257Z,98358.09
2023-11-23T11:43:58.136Z,98355.41
2023-11-23T11:46:29.519Z,98354.41
2023-11-23T11:49:00.385Z,98357.81
2023-11-23T11:51:30.846Z,98363.75
2023-11-23T11:54:00.647Z,98355.00
2023-11-23T11:56:29.898Z,98347.63
2023-11-23T11:59:00.353Z,98339.31
2023-11-23T12:01:29.052Z,98328.16
2023-11-23T12:03:58.904Z,98314.16
2023-11-23T12:06:28.996Z,98321.09
2023-11-23T12:08:59.225Z,98309.59
2023-11-23T12:11:32.151Z,98312.91
2023-11-23T12:14:01.960Z,98305.44
2023-11-23T12:16:37.606Z,98305.47
2023-11-23T12:19:20.605Z,98297.84
2023-11-23T12:21:56.461Z,98295.06
2023-11-23T12:24:26.953Z,98278.16
2023-11-23T12:26:56.894Z,98267.22
2023-11-23T12:29:30.165Z,98270.03
2023-11-23T12:32:02.393Z,98258.19
2023-11-23T12:34:32.142Z,98265.44
2023-11-23T12:37:01.486Z,98259.00
2023-11-23T12:39:30.344Z,98259.81
2023-11-23T12:41:59.173Z,98250.88
2023-11-23T12:44:27.629Z,98242.50
2023-11-23T12:46:56.078Z,98239.78
2023-11-23T12:49:24.682Z,98245.03
2023-11-23T12:51:55.721Z,98225.00
2023-11-23T12:54:24.338Z,98230.31
2023-11-23T12:56:53.476Z,98213.91
2023-11-23T12:59:21.898Z,98203.34
2023-11-23T13:01:51.829Z,98206.00
2023-11-23T13:04:21.467Z,98198.25
2023-11-23T13:06:50.183Z,98180.44
2023-11-23T13:09:25.363Z,98169.25
2023-11-23T13:11:56.400Z,98156.69
2023-11-23T13:14:24.805Z,98172.91
2023-11-23T13:16:53.854Z,98177.41
2023-11-23T13:19:30.344Z,98185.44
2023-11-23T13:22:06.165Z,98171.78
2023-11-23T13:24:37.853Z,98164.34
2023-11-23T13:27:08.000Z,98159.66
2023-11-23T13:29:38.307Z,98146.47
2023-11-23T13:32:08.239Z,98141.84
2023-11-23T13:34:37.796Z,98140.16
2023-11-23T13:37:06.569Z,98136.47
2023-11-23T13:39:37.644Z,98136.53
2023-11-23T13:42:07.275Z,98139.00
2023-11-23T13:44:35.916Z,98143.34
2023-11-23T13:47:05.582Z,98145.19
2023-11-23T13:49:34.597Z,98148.75
2023-11-23T13:52:04.006Z,98161.63
2023-11-23T13:54:32.566Z,98150.06
2023-11-23T13:57:02.664Z,98149.47
2023-11-23T13:59:31.047Z,98155.78
2023-11-23T14:02:00.502Z,98136.94
2023-11-23T14:04:28.976Z,98134.63
2023-11-23T14:06:58.385Z,98120.97
2023-11-23T14:09:29.727Z,98130.09
2023-11-23T14:11:58.560Z,98124.28
2023-11-23T14:14:30.509Z,98119.25
2023-11-23T14:16:58.921Z,98118.53
2023-11-23T14:19:27.627Z,98108.88
2023-11-23T14:21:56.768Z,98107.66
2023-11-23T14:24:25.296Z,98106.06
2023-11-23T14:26:54.270Z,98101.16
2023-11-23T14:29:22.595Z,98097.06
2023-11-23T14:31:53.001Z,98097.13
2023-11-23T14:34:25.128Z,98104.19
2023-11-23T14:36:56.391Z,98100.97
2023-11-23T14:39:29.040Z,98082.38
2023-11-23T14:41:57.997Z,98084.56
2023-11-23T14:44:26.346Z,98068.13
2023-11-23T14:46:55.949Z,98084.47
2023-11-23T14:49:24.359Z,98088.72
2023-11-23T14:51:54.030Z,98093.34
2023-11-23T14:54:31.909Z,98089.22
2023-11-23T14:57:08.251Z,98083.41
2023-11-23T14:59:37.319Z,98095.25
2023-11-23T15:02:08.418Z,98088.72
2023-11-23T15:04:36.745Z,98085.91
2023-11-23T15:07:05.399Z,98076.47
2023-11-23T15:09:33.676Z,98068.63
2023-11-23T15:12:03.232Z,98058.78
2023-11-23T15:14:32.226Z,98052.19
2023-11-23T15:17:00.972Z,98046.16
2023-11-23T15:19:35.484Z,98041.53
2023-11-23T15:22:06.725Z,98033.09
2023-11-23T15:24:36.034Z,98033.41
2023-11-23T15:27:06.006Z,98044.16
2023-11-23T15:29:34.406Z,98040.22
2023-11-23T15:32:04.308Z,98041.22
2023-11-23T15:34:33.974Z,98043.53
2023-11-23T15:37:02.400Z,98035.72
2023-11-23T15:39:30.664Z,98020.53
2023-11-23T15:41:59.107Z,98009.81
2023-11-23T15:44:28.462Z,97999.09
2023-11-23T15:46:56.620Z,97988.66
2023-11-23T15:49:25.995Z,97979.72
2023-11-23T15:51:55.852Z,97974.19
2023-11-23T15:54:25.309Z,97972.00
2023-11-23T15:56:54.136Z,97967.91
2023-11-23T15:59:41.055Z,97960.53
2023-11-23T16:02:29.622Z,97977.13
2023-11-23T16:05:25.630Z,97975.81
2023-11-23T16:08:15.776Z,97964.06
2023-11-23T16:11:04.305Z,97960.56
2023-11-23T16:13:52.771Z,97949.59
2023-11-23T16:16:42.126Z,97953.72
2023-11-23T16:19:30.781Z,97941.59
2023-11-23T16:22:19.425Z,97940.81
2023-11-23T16:25:12.116Z,97941.97
2023-11-23T16:28:00.978Z,97936.47
2023-11-23T16:30:50.626Z,97927.72
2023-11-23T16:33:39.520Z,97933.66
2023-11-23T16:36:36.583Z,97929.31
2023-11-23T16:39:30.006Z,97932.34
2023-11-23T16:42:19.874Z,97925.22
2023-11-23T16:45:09.697Z,97928.63
2023-11-23T16:47:59.908Z,97927.31
2023-11-23T16:50:51.012Z,97923.53
2023-11-23T16:53:39.985Z,97936.94
2023-11-23T16:56:28.605Z,97945.06
2023-11-23T16:59:19.325Z,97943.38
2023-11-23T17:02:09.766Z,97942.59
2023-11-23T17:07:47.259Z,97942.66
2023-11-23T17:10:35.838Z,97938.94
2023-11-23T17:13:24.942Z,97932.22
2023-11-23T17:16:14.822Z,97917.88
2023-11-23T17:19:03.342Z,97919.66
2023-11-23T17:21:53.993Z,97930.13
2023-11-23T17:24:42.496Z,97912.84
2023-11-23T17:27:31.087Z,97908.34
2023-11-23T17:30:19.854Z,97922.59
2023-11-23T17:33:14.265Z,97915.88
2023-11-23T17:36:03.445Z,97906.41
2023-11-23T17:38:52.453Z,97901.59
2023-11-23T17:41:40.900Z,97900.81
2023-11-23T17:44:29.464Z,97908.03
2023-11-23T17:47:18.515Z,97894.91
2023-11-23T17:50:12.424Z,97895.03
2023-11-23T17:53:01.036Z,97898.16
2023-11-23T17:55:50.204Z,97906.59
2023-11-23T17:58:38.837Z,97894.38
2023-11-23T18:01:28.638Z,97895.81
2023-11-23T18:04:17.795Z,97879.38
2023-11-23T18:07:08.494Z,97874.31
2023-11-23T18:09:58.126Z,97868.28
2023-11-23T18:12:47.458Z,97861.84
2023-11-23T18:15:36.074Z,97848.91
2023-11-23T18:18:25.047Z,97844.25
2023-11-23T18:21:14.206Z,97833.19
2023-11-23T18:24:05.775Z,97829.34
2023-11-23T18:26:54.865Z,97820.88
2023-11-23T18:29:43.849Z,97821.97
2023-11-23T18:32:33.120Z,97810.25
2023-11-23T18:35:24.570Z,97821.34
2023-11-23T18:38:15.670Z,97817.03
2023-11-23T18:41:07.192Z,97819.88
2023-11-23T18:43:56.531Z,97824.31
2023-11-23T18:46:45.887Z,97817.00
2023-11-23T18:49:34.880Z,97814.59
2023-11-23T18:52:23.877Z,97801.16
2023-11-23T18:55:15.671Z,97796.81
2023-11-23T18:58:07.630Z,97786.34
2023-11-23T19:00:57.966Z,97789.06
2023-11-23T19:03:48.592Z,97790.03
2023-11-23T19:06:37.311Z,97789.88
2023-11-23T19:09:28.341Z,97791.28
2023-11-23T19:12:17.201Z,97764.34
2023-11-23T19:15:11.226Z,97777.19
2023-11-23T19:18:00.698Z,97779.84
2023-11-23T19:20:49.988Z,97769.09
2023-11-23T19:23:39.347Z,97758.88
2023-11-23T19:26:28.639Z,97772.56
2023-11-23T19:29:17.802Z,97771.34
2023-11-23T19:32:11.624Z,97756.97
2023-11-23T19:35:01.331Z,97743.66
2023-11-23T19:37:52.952Z,97737.69
2023-11-23T19:40:43.527Z,97737.47
2023-11-23T19:43:32.886Z,97735.97
2023-11-23T19:46:22.217Z,97734.28
2023-11-23T19:49:14.884Z,97745.16
2023-11-23T19:52:13.915Z,97735.84
2023-11-23T19:55:03.849Z,97735.41
2023-11-23T19:57:52.465Z,97727.28
2023-11-23T20:00:41.058Z,97729.66
2023-11-23T20:03:30.912Z,97717.63
2023-11-23T20:06:20.836Z,97707.50
2023-11-23T20:09:10.472Z,97699.28
2023-11-23T20:11:59.672Z,97693.84
2023-11-23T20:14:48.453Z,97689.25
2023-11-23T20:17:36.894Z,97675.25
2023-11-23T20:20:25.473Z,97664.28
2023-11-23T20:23:15.330Z,97683.56
2023-11-23T20:26:04.013Z,97687.44
2023-11-23T20:28:52.419Z,97674.38
2023-11-23T20:31:41.086Z,97663.78
2023-11-23T20:34:30.050Z,97649.63
2023-11-23T20:37:18.948Z,97643.25
2023-11-23T20:40:10.533Z,97632.84
2023-11-23T20:42:59.823Z,97636.28
2023-11-23T20:45:48.429Z,97631.09
2023-11-23T20:48:37.833Z,97625.63
2023-11-23T20:51:26.899Z,97613.75
2023-11-23T20:54:17.119Z,97619.09
2023-11-23T20:57:08.435Z,97619.63
2023-11-23T20:59:57.664Z,97606.50
2023-11-23T21:02:47.614Z,97606.75
2023-11-23T21:05:36.962Z,97596.53
2023-11-23T21:08:26.340Z,97585.38
2023-11-23T21:11:14.906Z,97570.84
2023-11-23T21:14:05.372Z,97555.34
2023-11-23T21:16:54.052Z,97530.47
2023-11-23T21:19:43.009Z,97522.31
2023-11-23T21:22:31.470Z,97501.28
2023-11-23T21:25:20.034Z,97483.31
2023-11-23T21:28:08.593Z,97486.00
2023-11-23T21:30:58.567Z,97480.78
2023-11-23T21:33:47.082Z,97467.56
2023-11-23T21:36:36.041Z,97454.78
2023-11-23T21:39:25.037Z,97458.63
2023-11-23T21:42:13.537Z,97456.50
2023-11-23T21:45:01.960Z,97448.56
2023-11-23T21:47:52.404Z,97446.16
2023-11-23T21:50:40.903Z,97442.66
2023-11-23T21:53:29.336Z,97434.22
2023-11-23T21:56:17.862Z,97430.88
2023-11-23T21:59:06.341Z,97422.91
2023-11-23T22:01:55.503Z,97420.81
2023-11-23T22:04:47.184Z,97420.50
2023-11-23T22:07:35.823Z,97409.97
2023-11-23T22:10:24.317Z,97405.03
2023-11-23T22:13:12.781Z,97390.19
2023-11-23T22:16:01.202Z,97388.47
2023-11-23T22:18:50.819Z,97373.16
2023-11-23T22:21:41.552Z,97362.31
2023-11-23T22:24:30.683Z,97354.97
2023-11-23T22:27:21.086Z,97347.94
2023-11-23T22:30:11.415Z,97344.59
2023-11-23T22:33:02.468Z,97334.91
2023-11-23T22:35:51.501Z,97327.06
2023-11-23T22:38:42.320Z,97325.31
2023-11-23T22:41:31.841Z,97331.69
2023-11-23T22:44:21.232Z,97320.06
2023-11-23T22:47:10.778Z,97318.97
2023-11-23T22:49:59.342Z,97320.72
2023-11-23T22:52:47.792Z,97291.41
2023-11-23T22:55:37.596Z,97283.72
2023-11-23T22:58:27.574Z,97277.84
2023-11-23T23:01:16.143Z,97275.28
2023-11-23T23:04:08.544Z,97267.16
2023-11-23T23:06:57.195Z,97255.66
2023-11-23T23:09:47.212Z,97243.09
2023-11-23T23:12:36.998Z,97237.53
2023-11-23T23:15:25.804Z,97238.78
2023-11-23T23:18:14.443Z,97237.53
2023-11-23T23:21:02.930Z,97235.47
2023-11-23T23:23:51.489Z,97228.13
2023-11-23T23:26:41.525Z,97227.97
2023-11-23T23:29:31.610Z,97224.00
2023-11-23T23:32:20.110Z,97220.97
2023-11-23T23:35:10.920Z,97217.94
2023-11-23T23:38:00.415Z,97206.00
2023-11-23T23:40:51.018Z,97204.38
2023-11-23T23:43:40.363Z,97187.34
2023-11-23T23:46:30.180Z,97159.03
2023-11-23T23:49:18.864Z,97167.28
2023-11-23T23:52:08.378Z,97168.09
2023-11-23T23:54:57.105Z,97170.63
2023-11-23T23:57:45.730Z,97167.28
